sensor_id;sensor_type;location;lat;lon;timestamp;temperature;humidity
13707;DHT22;6925;47.816;13.072;2023-09-19T00:00:00;19.10;78.70
13707;DHT22;6925;47.816;13.072;2023-09-19T00:02:27;19.10;78.80
13707;DHT22;6925;47.816;13.072;2023-09-19T00:04:55;19.10;78.20
13707;DHT22;6925;47.816;13.072;2023-09-19T00:07:21;19.00;77.70
13707;DHT22;6925;47.816;13.072;2023-09-19T00:09:49;19.00;78.10
13707;DHT22;6925;47.816;13.072;2023-09-19T00:12:16;18.90;78.10
13707;DHT22;6925;47.816;13.072;2023-09-19T00:14:43;18.90;78.40
13707;DHT22;6925;47.816;13.072;2023-09-19T00:17:11;19.00;79.20
13707;DHT22;6925;47.816;13.072;2023-09-19T00:19:38;19.00;80.00
13707;DHT22;6925;47.816;13.072;2023-09-19T00:22:08;19.00;80.70
13707;DHT22;6925;47.816;13.072;2023-09-19T00:24:35;19.10;80.80
13707;DHT22;6925;47.816;13.072;2023-09-19T00:27:02;19.10;80.80
13707;DHT22;6925;47.816;13.072;2023-09-19T00:29:31;19.10;80.70
13707;DHT22;6925;47.816;13.072;2023-09-19T00:31:58;19.00;81.20
13707;DHT22;6925;47.816;13.072;2023-09-19T00:34:27;19.00;80.80
13707;DHT22;6925;47.816;13.072;2023-09-19T00:36:55;18.90;81.30
13707;DHT22;6925;47.816;13.072;2023-09-19T00:39:22;18.80;81.80
13707;DHT22;6925;47.816;13.072;2023-09-19T00:41:51;18.80;82.30
13707;DHT22;6925;47.816;13.072;2023-09-19T00:44:18;18.80;82.20
13707;DHT22;6925;47.816;13.072;2023-09-19T00:46:47;18.80;82.60
13707;DHT22;6925;47.816;13.072;2023-09-19T00:49:16;18.80;82.60
13707;DHT22;6925;47.816;13.072;2023-09-19T00:51:44;18.80;82.60
13707;DHT22;6925;47.816;13.072;2023-09-19T00:54:13;18.80;82.60
13707;DHT22;6925;47.816;13.072;2023-09-19T00:56:44;18.80;82.80
13707;DHT22;6925;47.816;13.072;2023-09-19T00:59:12;18.80;82.10
13707;DHT22;6925;47.816;13.072;2023-09-19T01:01:38;18.70;81.50
13707;DHT22;6925;47.816;13.072;2023-09-19T01:04:06;18.60;81.80
13707;DHT22;6925;47.816;13.072;2023-09-19T01:06:33;18.60;81.70
13707;DHT22;6925;47.816;13.072;2023-09-19T01:09:04;18.60;81.50
13707;DHT22;6925;47.816;13.072;2023-09-19T01:11:35;18.60;81.30
13707;DHT22;6925;47.816;13.072;2023-09-19T01:14:13;18.60;81.50
13707;DHT22;6925;47.816;13.072;2023-09-19T01:16:49;18.60;81.40
13707;DHT22;6925;47.816;13.072;2023-09-19T01:19:38;18.50;82.10
13707;DHT22;6925;47.816;13.072;2023-09-19T01:22:16;18.50;82.80
13707;DHT22;6925;47.816;13.072;2023-09-19T01:25:13;18.50;83.30
13707;DHT22;6925;47.816;13.072;2023-09-19T01:28:06;18.50;83.70
13707;DHT22;6925;47.816;13.072;2023-09-19T01:30:42;18.60;83.60
13707;DHT22;6925;47.816;13.072;2023-09-19T01:33:10;18.60;83.60
13707;DHT22;6925;47.816;13.072;2023-09-19T01:35:38;18.60;83.20
13707;DHT22;6925;47.816;13.072;2023-09-19T01:38:05;18.60;83.40
13707;DHT22;6925;47.816;13.072;2023-09-19T01:40:39;18.70;83.30
13707;DHT22;6925;47.816;13.072;2023-09-19T01:43:12;18.70;83.30
13707;DHT22;6925;47.816;13.072;2023-09-19T01:45:51;18.70;83.50
13707;DHT22;6925;47.816;13.072;2023-09-19T01:48:32;18.70;83.60
13707;DHT22;6925;47.816;13.072;2023-09-19T01:51:05;18.70;83.40
13707;DHT22;6925;47.816;13.072;2023-09-19T01:53:35;18.70;83.20
13707;DHT22;6925;47.816;13.072;2023-09-19T01:56:08;18.70;83.10
13707;DHT22;6925;47.816;13.072;2023-09-19T01:58:41;18.70;83.00
13707;DHT22;6925;47.816;13.072;2023-09-19T02:01:13;18.70;83.20
13707;DHT22;6925;47.816;13.072;2023-09-19T02:03:43;18.60;83.50
13707;DHT22;6925;47.816;13.072;2023-09-19T02:06:14;18.60;83.50
13707;DHT22;6925;47.816;13.072;2023-09-19T02:08:41;18.60;83.70
13707;DHT22;6925;47.816;13.072;2023-09-19T02:11:08;18.60;83.60
13707;DHT22;6925;47.816;13.072;2023-09-19T02:13:35;18.60;83.30
13707;DHT22;6925;47.816;13.072;2023-09-19T02:16:03;18.60;83.20
13707;DHT22;6925;47.816;13.072;2023-09-19T02:18:33;18.60;83.30
13707;DHT22;6925;47.816;13.072;2023-09-19T02:21:01;18.70;83.40
13707;DHT22;6925;47.816;13.072;2023-09-19T02:23:29;18.70;82.50
13707;DHT22;6925;47.816;13.072;2023-09-19T02:25:57;18.70;83.30
13707;DHT22;6925;47.816;13.072;2023-09-19T02:28:26;18.70;83.00
13707;DHT22;6925;47.816;13.072;2023-09-19T02:30:56;18.70;83.00
13707;DHT22;6925;47.816;13.072;2023-09-19T02:33:23;18.70;82.70
13707;DHT22;6925;47.816;13.072;2023-09-19T02:35:53;18.70;83.00
13707;DHT22;6925;47.816;13.072;2023-09-19T02:38:23;18.70;82.90
13707;DHT22;6925;47.816;13.072;2023-09-19T02:40:50;18.70;83.20
13707;DHT22;6925;47.816;13.072;2023-09-19T02:43:18;18.70;82.70
13707;DHT22;6925;47.816;13.072;2023-09-19T02:45:45;18.70;82.90
13707;DHT22;6925;47.816;13.072;2023-09-19T02:48:15;18.70;82.60
13707;DHT22;6925;47.816;13.072;2023-09-19T02:50:43;18.70;82.70
13707;DHT22;6925;47.816;13.072;2023-09-19T02:53:13;18.70;82.10
13707;DHT22;6925;47.816;13.072;2023-09-19T02:55:40;18.70;82.10
13707;DHT22;6925;47.816;13.072;2023-09-19T02:58:08;18.70;82.60
13707;DHT22;6925;47.816;13.072;2023-09-19T03:00:37;18.70;81.90
13707;DHT22;6925;47.816;13.072;2023-09-19T03:03:04;18.60;81.80
13707;DHT22;6925;47.816;13.072;2023-09-19T03:05:33;18.60;82.30
13707;DHT22;6925;47.816;13.072;2023-09-19T03:08:01;18.70;82.30
13707;DHT22;6925;47.816;13.072;2023-09-19T03:10:30;18.70;82.10
13707;DHT22;6925;47.816;13.072;2023-09-19T03:12:57;18.70;82.20
13707;DHT22;6925;47.816;13.072;2023-09-19T03:15:25;18.70;82.10
13707;DHT22;6925;47.816;13.072;2023-09-19T03:17:52;18.70;82.30
13707;DHT22;6925;47.816;13.072;2023-09-19T03:20:20;18.70;82.40
13707;DHT22;6925;47.816;13.072;2023-09-19T03:22:48;18.70;82.30
13707;DHT22;6925;47.816;13.072;2023-09-19T03:25:15;18.70;82.10
13707;DHT22;6925;47.816;13.072;2023-09-19T03:27:44;18.70;82.40
13707;DHT22;6925;47.816;13.072;2023-09-19T03:30:12;18.60;82.30
13707;DHT22;6925;47.816;13.072;2023-09-19T03:32:44;18.60;82.70
13707;DHT22;6925;47.816;13.072;2023-09-19T03:35:12;18.70;82.60
13707;DHT22;6925;47.816;13.072;2023-09-19T03:37:40;18.70;82.50
13707;DHT22;6925;47.816;13.072;2023-09-19T03:40:08;18.70;82.00
13707;DHT22;6925;47.816;13.072;2023-09-19T03:42:38;18.80;81.80
13707;DHT22;6925;47.816;13.072;2023-09-19T03:45:08;18.80;81.00
13707;DHT22;6925;47.816;13.072;2023-09-19T03:47:38;18.70;81.00
13707;DHT22;6925;47.816;13.072;2023-09-19T03:50:05;18.70;81.00
13707;DHT22;6925;47.816;13.072;2023-09-19T03:52:34;18.70;81.80
13707;DHT22;6925;47.816;13.072;2023-09-19T03:55:01;18.70;82.00
13707;DHT22;6925;47.816;13.072;2023-09-19T03:57:30;18.80;82.30
13707;DHT22;6925;47.816;13.072;2023-09-19T03:59:57;18.80;82.70
13707;DHT22;6925;47.816;13.072;2023-09-19T04:02:25;18.80;82.30
13707;DHT22;6925;47.816;13.072;2023-09-19T04:04:58;18.80;82.20
13707;DHT22;6925;47.816;13.072;2023-09-19T04:07:26;18.80;82.10
13707;DHT22;6925;47.816;13.072;2023-09-19T04:09:54;18.80;81.70
13707;DHT22;6925;47.816;13.072;2023-09-19T04:12:21;18.80;82.20
13707;DHT22;6925;47.816;13.072;2023-09-19T04:14:48;18.90;83.00
13707;DHT22;6925;47.816;13.072;2023-09-19T04:17:16;19.00;83.00
13707;DHT22;6925;47.816;13.072;2023-09-19T04:19:45;19.00;82.20
13707;DHT22;6925;47.816;13.072;2023-09-19T04:22:12;19.00;82.40
13707;DHT22;6925;47.816;13.072;2023-09-19T04:24:39;19.00;82.70
13707;DHT22;6925;47.816;13.072;2023-09-19T04:27:06;18.90;82.40
13707;DHT22;6925;47.816;13.072;2023-09-19T04:29:33;18.90;82.50
13707;DHT22;6925;47.816;13.072;2023-09-19T04:32:01;18.90;82.80
13707;DHT22;6925;47.816;13.072;2023-09-19T04:34:30;19.00;83.30
13707;DHT22;6925;47.816;13.072;2023-09-19T04:36:58;19.00;82.60
13707;DHT22;6925;47.816;13.072;2023-09-19T04:39:26;19.00;82.40
13707;DHT22;6925;47.816;13.072;2023-09-19T04:41:54;19.00;83.00
13707;DHT22;6925;47.816;13.072;2023-09-19T04:44:21;19.00;82.30
13707;DHT22;6925;47.816;13.072;2023-09-19T04:46:48;18.90;82.30
13707;DHT22;6925;47.816;13.072;2023-09-19T04:49:15;18.80;82.80
13707;DHT22;6925;47.816;13.072;2023-09-19T04:51:43;18.80;82.40
13707;DHT22;6925;47.816;13.072;2023-09-19T04:54:13;18.80;82.20
13707;DHT22;6925;47.816;13.072;2023-09-19T04:56:41;18.80;82.20
13707;DHT22;6925;47.816;13.072;2023-09-19T04:59:08;18.80;82.60
13707;DHT22;6925;47.816;13.072;2023-09-19T05:01:36;18.80;82.80
13707;DHT22;6925;47.816;13.072;2023-09-19T05:04:04;18.80;82.30
13707;DHT22;6925;47.816;13.072;2023-09-19T05:06:31;18.80;82.30
13707;DHT22;6925;47.816;13.072;2023-09-19T05:08:59;18.80;82.70
13707;DHT22;6925;47.816;13.072;2023-09-19T05:11:27;18.80;82.50
13707;DHT22;6925;47.816;13.072;2023-09-19T05:13:56;18.70;82.10
13707;DHT22;6925;47.816;13.072;2023-09-19T05:16:23;18.70;82.80
13707;DHT22;6925;47.816;13.072;2023-09-19T05:18:50;18.60;83.00
13707;DHT22;6925;47.816;13.072;2023-09-19T05:21:17;18.50;82.90
13707;DHT22;6925;47.816;13.072;2023-09-19T05:23:44;18.40;83.20
13707;DHT22;6925;47.816;13.072;2023-09-19T05:26:13;18.30;83.90
13707;DHT22;6925;47.816;13.072;2023-09-19T05:28:43;18.30;83.80
13707;DHT22;6925;47.816;13.072;2023-09-19T05:31:10;18.30;84.90
13707;DHT22;6925;47.816;13.072;2023-09-19T05:33:37;18.30;84.30
13707;DHT22;6925;47.816;13.072;2023-09-19T05:36:05;18.30;84.80
13707;DHT22;6925;47.816;13.072;2023-09-19T05:38:35;18.30;84.80
13707;DHT22;6925;47.816;13.072;2023-09-19T05:41:02;18.40;85.30
13707;DHT22;6925;47.816;13.072;2023-09-19T05:43:29;18.40;85.30
13707;DHT22;6925;47.816;13.072;2023-09-19T05:45:59;18.50;85.60
13707;DHT22;6925;47.816;13.072;2023-09-19T05:48:26;18.60;85.20
13707;DHT22;6925;47.816;13.072;2023-09-19T05:50:53;18.60;84.70
13707;DHT22;6925;47.816;13.072;2023-09-19T05:53:21;18.70;84.60
13707;DHT22;6925;47.816;13.072;2023-09-19T05:55:49;18.70;84.40
13707;DHT22;6925;47.816;13.072;2023-09-19T05:58:16;18.70;84.40
13707;DHT22;6925;47.816;13.072;2023-09-19T06:00:43;18.80;83.60
13707;DHT22;6925;47.816;13.072;2023-09-19T06:03:14;18.80;83.60
13707;DHT22;6925;47.816;13.072;2023-09-19T06:05:43;18.90;84.20
13707;DHT22;6925;47.816;13.072;2023-09-19T06:08:11;18.90;84.80
13707;DHT22;6925;47.816;13.072;2023-09-19T06:10:38;19.00;84.90
13707;DHT22;6925;47.816;13.072;2023-09-19T06:13:05;18.90;83.60
13707;DHT22;6925;47.816;13.072;2023-09-19T06:15:35;18.90;84.20
13707;DHT22;6925;47.816;13.072;2023-09-19T06:18:02;19.00;84.10
13707;DHT22;6925;47.816;13.072;2023-09-19T06:20:32;19.00;84.50
13707;DHT22;6925;47.816;13.072;2023-09-19T06:23:00;19.10;84.30
13707;DHT22;6925;47.816;13.072;2023-09-19T06:25:27;19.10;83.10
13707;DHT22;6925;47.816;13.072;2023-09-19T06:27:54;19.00;82.90
13707;DHT22;6925;47.816;13.072;2023-09-19T06:30:22;19.00;83.30
13707;DHT22;6925;47.816;13.072;2023-09-19T06:32:58;19.00;82.90
13707;DHT22;6925;47.816;13.072;2023-09-19T06:35:26;19.00;83.50
13707;DHT22;6925;47.816;13.072;2023-09-19T06:37:55;19.00;83.80
13707;DHT22;6925;47.816;13.072;2023-09-19T06:40:23;18.90;84.40
13707;DHT22;6925;47.816;13.072;2023-09-19T06:42:51;19.00;84.10
13707;DHT22;6925;47.816;13.072;2023-09-19T06:45:18;19.10;83.10
13707;DHT22;6925;47.816;13.072;2023-09-19T06:47:48;19.00;82.80
13707;DHT22;6925;47.816;13.072;2023-09-19T06:50:16;19.00;84.10
13707;DHT22;6925;47.816;13.072;2023-09-19T06:52:44;19.10;85.30
13707;DHT22;6925;47.816;13.072;2023-09-19T06:55:17;19.20;84.70
13707;DHT22;6925;47.816;13.072;2023-09-19T06:57:45;19.30;83.50
13707;DHT22;6925;47.816;13.072;2023-09-19T07:00:13;19.30;83.40
13707;DHT22;6925;47.816;13.072;2023-09-19T07:02:44;19.30;84.10
13707;DHT22;6925;47.816;13.072;2023-09-19T07:05:11;19.40;84.50
13707;DHT22;6925;47.816;13.072;2023-09-19T07:07:38;19.50;85.20
13707;DHT22;6925;47.816;13.072;2023-09-19T07:10:06;19.50;84.80
13707;DHT22;6925;47.816;13.072;2023-09-19T07:12:37;19.70;85.30
13707;DHT22;6925;47.816;13.072;2023-09-19T07:15:05;19.70;82.60
13707;DHT22;6925;47.816;13.072;2023-09-19T07:17:32;19.80;84.10
13707;DHT22;6925;47.816;13.072;2023-09-19T07:20:01;19.90;83.30
13707;DHT22;6925;47.816;13.072;2023-09-19T07:22:33;19.90;80.30
13707;DHT22;6925;47.816;13.072;2023-09-19T07:25:00;19.90;79.90
13707;DHT22;6925;47.816;13.072;2023-09-19T07:27:28;19.90;81.80
13707;DHT22;6925;47.816;13.072;2023-09-19T07:29:56;20.10;83.10
13707;DHT22;6925;47.816;13.072;2023-09-19T07:32:24;20.30;80.10
13707;DHT22;6925;47.816;13.072;2023-09-19T07:34:51;20.30;78.40
13707;DHT22;6925;47.816;13.072;2023-09-19T07:37:18;20.40;79.30
13707;DHT22;6925;47.816;13.072;2023-09-19T07:39:47;20.50;79.50
13707;DHT22;6925;47.816;13.072;2023-09-19T07:42:14;20.60;77.60
13707;DHT22;6925;47.816;13.072;2023-09-19T07:44:43;20.60;78.70
13707;DHT22;6925;47.816;13.072;2023-09-19T07:47:14;20.70;77.40
13707;DHT22;6925;47.816;13.072;2023-09-19T07:49:41;20.70;78.20
13707;DHT22;6925;47.816;13.072;2023-09-19T07:52:09;20.70;76.10
13707;DHT22;6925;47.816;13.072;2023-09-19T07:54:36;20.70;75.40
13707;DHT22;6925;47.816;13.072;2023-09-19T07:57:04;20.70;75.70
13707;DHT22;6925;47.816;13.072;2023-09-19T07:59:31;20.70;77.80
13707;DHT22;6925;47.816;13.072;2023-09-19T08:01:58;20.70;74.40
13707;DHT22;6925;47.816;13.072;2023-09-19T08:04:27;20.70;75.30
13707;DHT22;6925;47.816;13.072;2023-09-19T08:06:56;20.80;75.60
13707;DHT22;6925;47.816;13.072;2023-09-19T08:09:26;20.90;76.90
13707;DHT22;6925;47.816;13.072;2023-09-19T08:11:53;20.90;75.80
13707;DHT22;6925;47.816;13.072;2023-09-19T08:14:20;21.00;76.30
13707;DHT22;6925;47.816;13.072;2023-09-19T08:16:48;21.00;77.00
13707;DHT22;6925;47.816;13.072;2023-09-19T08:19:15;21.00;75.10
13707;DHT22;6925;47.816;13.072;2023-09-19T08:21:44;21.00;76.20
13707;DHT22;6925;47.816;13.072;2023-09-19T08:24:13;21.00;74.00
13707;DHT22;6925;47.816;13.072;2023-09-19T08:26:40;21.00;75.80
13707;DHT22;6925;47.816;13.072;2023-09-19T08:29:08;21.00;77.20
13707;DHT22;6925;47.816;13.072;2023-09-19T08:31:37;21.10;77.60
13707;DHT22;6925;47.816;13.072;2023-09-19T08:34:04;21.10;76.80
13707;DHT22;6925;47.816;13.072;2023-09-19T08:36:32;21.10;75.60
13707;DHT22;6925;47.816;13.072;2023-09-19T08:39:00;21.10;75.50
13707;DHT22;6925;47.816;13.072;2023-09-19T08:41:27;21.20;75.00
13707;DHT22;6925;47.816;13.072;2023-09-19T08:43:54;21.20;74.20
13707;DHT22;6925;47.816;13.072;2023-09-19T08:46:25;21.20;73.20
13707;DHT22;6925;47.816;13.072;2023-09-19T08:49:01;21.30;74.60
13707;DHT22;6925;47.816;13.072;2023-09-19T08:51:37;21.40;75.50
13707;DHT22;6925;47.816;13.072;2023-09-19T08:54:08;21.60;75.00
13707;DHT22;6925;47.816;13.072;2023-09-19T08:56:37;21.70;72.70
13707;DHT22;6925;47.816;13.072;2023-09-19T08:59:06;21.60;72.10
13707;DHT22;6925;47.816;13.072;2023-09-19T09:01:34;21.70;73.20
13707;DHT22;6925;47.816;13.072;2023-09-19T09:04:03;21.80;74.40
13707;DHT22;6925;47.816;13.072;2023-09-19T09:06:35;21.80;71.10
13707;DHT22;6925;47.816;13.072;2023-09-19T09:09:03;21.90;72.70
13707;DHT22;6925;47.816;13.072;2023-09-19T09:11:33;21.90;70.50
13707;DHT22;6925;47.816;13.072;2023-09-19T09:14:00;21.90;70.50
13707;DHT22;6925;47.816;13.072;2023-09-19T09:16:30;21.90;69.40
13707;DHT22;6925;47.816;13.072;2023-09-19T09:18:57;21.90;68.60
13707;DHT22;6925;47.816;13.072;2023-09-19T09:21:25;22.00;69.90
13707;DHT22;6925;47.816;13.072;2023-09-19T09:23:53;22.00;69.60
13707;DHT22;6925;47.816;13.072;2023-09-19T09:26:42;22.00;69.00
13707;DHT22;6925;47.816;13.072;2023-09-19T09:29:09;22.10;68.50
13707;DHT22;6925;47.816;13.072;2023-09-19T09:31:36;22.10;71.00
13707;DHT22;6925;47.816;13.072;2023-09-19T09:34:03;22.20;73.00
13707;DHT22;6925;47.816;13.072;2023-09-19T09:36:34;22.30;70.60
13707;DHT22;6925;47.816;13.072;2023-09-19T09:39:02;22.30;70.30
13707;DHT22;6925;47.816;13.072;2023-09-19T09:41:43;22.40;70.00
13707;DHT22;6925;47.816;13.072;2023-09-19T09:44:16;22.40;69.70
13707;DHT22;6925;47.816;13.072;2023-09-19T09:46:45;22.40;69.10
13707;DHT22;6925;47.816;13.072;2023-09-19T09:49:41;22.40;69.70
13707;DHT22;6925;47.816;13.072;2023-09-19T09:52:20;22.50;71.70
13707;DHT22;6925;47.816;13.072;2023-09-19T09:54:59;22.60;70.30
13707;DHT22;6925;47.816;13.072;2023-09-19T09:57:28;22.60;71.60
13707;DHT22;6925;47.816;13.072;2023-09-19T09:59:57;22.60;69.70
13707;DHT22;6925;47.816;13.072;2023-09-19T10:02:41;22.70;70.70
13707;DHT22;6925;47.816;13.072;2023-09-19T10:05:12;22.60;67.50
13707;DHT22;6925;47.816;13.072;2023-09-19T10:07:47;22.60;67.60
13707;DHT22;6925;47.816;13.072;2023-09-19T10:10:30;22.60;69.20
13707;DHT22;6925;47.816;13.072;2023-09-19T10:13:06;22.70;69.50
13707;DHT22;6925;47.816;13.072;2023-09-19T10:15:37;22.80;68.30
13707;DHT22;6925;47.816;13.072;2023-09-19T10:18:06;22.80;66.20
13707;DHT22;6925;47.816;13.072;2023-09-19T10:20:36;22.70;67.90
13707;DHT22;6925;47.816;13.072;2023-09-19T10:23:07;22.80;67.70
13707;DHT22;6925;47.816;13.072;2023-09-19T10:25:39;22.90;69.30
13707;DHT22;6925;47.816;13.072;2023-09-19T10:28:09;23.00;68.00
13707;DHT22;6925;47.816;13.072;2023-09-19T10:30:38;23.00;66.70
13707;DHT22;6925;47.816;13.072;2023-09-19T10:33:11;23.10;63.60
13707;DHT22;6925;47.816;13.072;2023-09-19T10:35:39;23.00;66.60
13707;DHT22;6925;47.816;13.072;2023-09-19T10:38:07;23.20;64.10
13707;DHT22;6925;47.816;13.072;2023-09-19T10:40:37;23.30;65.70
13707;DHT22;6925;47.816;13.072;2023-09-19T10:43:12;23.40;64.60
13707;DHT22;6925;47.816;13.072;2023-09-19T10:45:41;23.60;63.20
13707;DHT22;6925;47.816;13.072;2023-09-19T10:48:10;23.70;64.50
13707;DHT22;6925;47.816;13.072;2023-09-19T10:50:44;24.00;64.20
13707;DHT22;6925;47.816;13.072;2023-09-19T10:53:13;24.20;60.90
13707;DHT22;6925;47.816;13.072;2023-09-19T10:55:41;24.30;61.20
13707;DHT22;6925;47.816;13.072;2023-09-19T10:58:27;24.50;61.30
13707;DHT22;6925;47.816;13.072;2023-09-19T11:00:56;24.90;60.80
13707;DHT22;6925;47.816;13.072;2023-09-19T11:03:28;25.30;60.10
13707;DHT22;6925;47.816;13.072;2023-09-19T11:06:04;25.60;58.90
13707;DHT22;6925;47.816;13.072;2023-09-19T11:09:00;25.80;58.20
13707;DHT22;6925;47.816;13.072;2023-09-19T11:11:49;26.10;58.80
13707;DHT22;6925;47.816;13.072;2023-09-19T11:14:41;26.50;57.30
13707;DHT22;6925;47.816;13.072;2023-09-19T11:17:42;26.50;57.40
13707;DHT22;6925;47.816;13.072;2023-09-19T11:20:22;26.60;56.60
13707;DHT22;6925;47.816;13.072;2023-09-19T11:23:28;26.70;56.00
13707;DHT22;6925;47.816;13.072;2023-09-19T11:25:56;26.70;57.10
13707;DHT22;6925;47.816;13.072;2023-09-19T11:28:34;26.60;53.60
13707;DHT22;6925;47.816;13.072;2023-09-19T11:34:39;26.50;56.40
13707;DHT22;6925;47.816;13.072;2023-09-19T11:40:37;26.50;55.30
13707;DHT22;6925;47.816;13.072;2023-09-19T11:43:29;26.40;55.50
13707;DHT22;6925;47.816;13.072;2023-09-19T11:46:09;26.30;55.20
13707;DHT22;6925;47.816;13.072;2023-09-19T11:48:38;26.20;55.30
13707;DHT22;6925;47.816;13.072;2023-09-19T11:51:26;26.20;57.10
13707;DHT22;6925;47.816;13.072;2023-09-19T11:53:54;26.30;55.50
13707;DHT22;6925;47.816;13.072;2023-09-19T11:56:23;26.40;56.70
13707;DHT22;6925;47.816;13.072;2023-09-19T11:58:52;26.40;56.60
13707;DHT22;6925;47.816;13.072;2023-09-19T12:01:23;26.40;55.40
13707;DHT22;6925;47.816;13.072;2023-09-19T12:03:54;26.30;54.50
13707;DHT22;6925;47.816;13.072;2023-09-19T12:06:23;26.20;56.10
13707;DHT22;6925;47.816;13.072;2023-09-19T12:08:52;26.40;55.30
13707;DHT22;6925;47.816;13.072;2023-09-19T12:11:22;26.40;55.70
13707;DHT22;6925;47.816;13.072;2023-09-19T12:13:50;26.50;56.20
13707;DHT22;6925;47.816;13.072;2023-09-19T12:16:20;26.60;55.20
13707;DHT22;6925;47.816;13.072;2023-09-19T12:18:49;26.70;55.40
13707;DHT22;6925;47.816;13.072;2023-09-19T12:21:27;26.80;55.40
13707;DHT22;6925;47.816;13.072;2023-09-19T12:24:04;26.80;55.50
13707;DHT22;6925;47.816;13.072;2023-09-19T12:26:41;26.80;55.40
13707;DHT22;6925;47.816;13.072;2023-09-19T12:29:13;26.70;53.90
13707;DHT22;6925;47.816;13.072;2023-09-19T12:31:51;26.50;56.20
13707;DHT22;6925;47.816;13.072;2023-09-19T12:34:21;26.50;56.90
13707;DHT22;6925;47.816;13.072;2023-09-19T12:36:48;26.50;57.60
13707;DHT22;6925;47.816;13.072;2023-09-19T12:39:25;26.50;57.90
13707;DHT22;6925;47.816;13.072;2023-09-19T12:41:55;26.40;57.20
13707;DHT22;6925;47.816;13.072;2023-09-19T12:44:22;26.40;56.10
13707;DHT22;6925;47.816;13.072;2023-09-19T12:46:50;26.30;55.90
13707;DHT22;6925;47.816;13.072;2023-09-19T12:49:20;26.50;57.30
13707;DHT22;6925;47.816;13.072;2023-09-19T12:51:49;26.70;58.10
13707;DHT22;6925;47.816;13.072;2023-09-19T12:54:16;26.90;56.10
13707;DHT22;6925;47.816;13.072;2023-09-19T12:56:45;26.90;55.10
13707;DHT22;6925;47.816;13.072;2023-09-19T12:59:14;26.90;56.50
13707;DHT22;6925;47.816;13.072;2023-09-19T13:01:42;27.10;58.10
13707;DHT22;6925;47.816;13.072;2023-09-19T13:04:16;27.40;55.70
13707;DHT22;6925;47.816;13.072;2023-09-19T13:06:46;27.60;55.80
13707;DHT22;6925;47.816;13.072;2023-09-19T13:09:15;27.70;54.30
13707;DHT22;6925;47.816;13.072;2023-09-19T13:11:51;27.80;55.70
13707;DHT22;6925;47.816;13.072;2023-09-19T13:14:21;27.80;55.30
13707;DHT22;6925;47.816;13.072;2023-09-19T13:16:56;27.80;54.80
13707;DHT22;6925;47.816;13.072;2023-09-19T13:19:41;27.70;54.80
13707;DHT22;6925;47.816;13.072;2023-09-19T13:22:36;27.50;51.60
13707;DHT22;6925;47.816;13.072;2023-09-19T13:25:07;27.50;53.50
13707;DHT22;6925;47.816;13.072;2023-09-19T13:27:41;27.60;52.90
13707;DHT22;6925;47.816;13.072;2023-09-19T13:30:11;27.60;54.00
13707;DHT22;6925;47.816;13.072;2023-09-19T13:32:40;27.70;51.10
13707;DHT22;6925;47.816;13.072;2023-09-19T13:35:08;27.70;51.60
13707;DHT22;6925;47.816;13.072;2023-09-19T13:37:38;27.90;51.30
13707;DHT22;6925;47.816;13.072;2023-09-19T13:40:07;27.80;50.70
13707;DHT22;6925;47.816;13.072;2023-09-19T13:42:35;27.60;49.50
13707;DHT22;6925;47.816;13.072;2023-09-19T13:45:07;27.40;50.40
13707;DHT22;6925;47.816;13.072;2023-09-19T13:47:39;27.40;50.90
13707;DHT22;6925;47.816;13.072;2023-09-19T13:50:08;27.50;51.10
13707;DHT22;6925;47.816;13.072;2023-09-19T13:52:37;27.60;50.40
13707;DHT22;6925;47.816;13.072;2023-09-19T13:55:05;27.80;49.20
13707;DHT22;6925;47.816;13.072;2023-09-19T13:57:33;28.00;50.40
13707;DHT22;6925;47.816;13.072;2023-09-19T14:00:00;28.30;48.50
13707;DHT22;6925;47.816;13.072;2023-09-19T14:02:45;28.60;48.60
13707;DHT22;6925;47.816;13.072;2023-09-19T14:05:18;28.70;46.50
13707;DHT22;6925;47.816;13.072;2023-09-19T14:07:47;28.90;47.50
13707;DHT22;6925;47.816;13.072;2023-09-19T14:10:15;29.10;44.10
13707;DHT22;6925;47.816;13.072;2023-09-19T14:12:45;29.10;44.00
13707;DHT22;6925;47.816;13.072;2023-09-19T14:15:14;29.20;43.30
13707;DHT22;6925;47.816;13.072;2023-09-19T14:17:43;29.10;43.70
13707;DHT22;6925;47.816;13.072;2023-09-19T14:20:11;29.10;42.80
13707;DHT22;6925;47.816;13.072;2023-09-19T14:22:38;29.00;43.10
13707;DHT22;6925;47.816;13.072;2023-09-19T14:25:06;29.10;43.80
13707;DHT22;6925;47.816;13.072;2023-09-19T14:27:34;29.20;45.20
13707;DHT22;6925;47.816;13.072;2023-09-19T14:30:04;29.20;45.30
13707;DHT22;6925;47.816;13.072;2023-09-19T14:32:31;29.20;46.20
13707;DHT22;6925;47.816;13.072;2023-09-19T14:35:02;29.20;47.70
13707;DHT22;6925;47.816;13.072;2023-09-19T14:37:30;29.10;47.70
13707;DHT22;6925;47.816;13.072;2023-09-19T14:39:57;29.00;48.30
13707;DHT22;6925;47.816;13.072;2023-09-19T14:42:25;28.80;49.40
13707;DHT22;6925;47.816;13.072;2023-09-19T14:44:53;28.90;48.00
13707;DHT22;6925;47.816;13.072;2023-09-19T14:47:21;28.80;48.60
13707;DHT22;6925;47.816;13.072;2023-09-19T14:49:49;28.80;47.10
13707;DHT22;6925;47.816;13.072;2023-09-19T14:52:18;28.80;44.10
13707;DHT22;6925;47.816;13.072;2023-09-19T14:54:46;28.70;44.50
13707;DHT22;6925;47.816;13.072;2023-09-19T14:57:14;28.60;45.30
13707;DHT22;6925;47.816;13.072;2023-09-19T14:59:41;28.70;43.80
13707;DHT22;6925;47.816;13.072;2023-09-19T15:02:08;28.70;44.70
13707;DHT22;6925;47.816;13.072;2023-09-19T15:04:35;28.80;43.90
13707;DHT22;6925;47.816;13.072;2023-09-19T15:07:03;28.80;45.60
13707;DHT22;6925;47.816;13.072;2023-09-19T15:09:34;29.00;45.30
13707;DHT22;6925;47.816;13.072;2023-09-19T15:12:02;29.20;45.70
13707;DHT22;6925;47.816;13.072;2023-09-19T15:14:29;29.30;44.90
13707;DHT22;6925;47.816;13.072;2023-09-19T15:16:56;29.40;46.00
13707;DHT22;6925;47.816;13.072;2023-09-19T15:19:23;29.60;46.40
13707;DHT22;6925;47.816;13.072;2023-09-19T15:21:51;29.60;45.40
13707;DHT22;6925;47.816;13.072;2023-09-19T15:24:18;29.40;43.50
13707;DHT22;6925;47.816;13.072;2023-09-19T15:26:47;29.30;43.90
13707;DHT22;6925;47.816;13.072;2023-09-19T15:29:14;29.10;40.90
13707;DHT22;6925;47.816;13.072;2023-09-19T15:31:41;28.80;41.30
13707;DHT22;6925;47.816;13.072;2023-09-19T15:34:09;28.80;43.60
13707;DHT22;6925;47.816;13.072;2023-09-19T15:36:40;28.80;44.50
13707;DHT22;6925;47.816;13.072;2023-09-19T15:39:07;28.80;43.30
13707;DHT22;6925;47.816;13.072;2023-09-19T15:41:41;28.70;44.00
13707;DHT22;6925;47.816;13.072;2023-09-19T15:44:15;28.70;44.80
13707;DHT22;6925;47.816;13.072;2023-09-19T15:46:42;28.80;46.10
13707;DHT22;6925;47.816;13.072;2023-09-19T15:49:10;28.90;45.60
13707;DHT22;6925;47.816;13.072;2023-09-19T15:51:38;28.80;46.40
13707;DHT22;6925;47.816;13.072;2023-09-19T15:54:08;28.70;46.00